sensor_id;sensor_type;location;lat;lon;timestamp;P1;durP1;ratioP1;P2;durP2;ratioP2
7263;SDS011;3673;52.480;13.348;2023-02-19T00:01:00;7.18;;;3.97;;
7263;SDS011;3673;52.480;13.348;2023-02-19T00:03:33;5.13;;;4.38;;
7263;SDS011;3673;52.480;13.348;2023-02-19T00:06:02;5.60;;;3.70;;
7263;SDS011;3673;52.480;13.348;2023-02-19T00:08:30;5.13;;;3.53;;
7263;SDS011;3673;52.480;13.348;2023-02-19T00:10:59;4.85;;;3.95;;
7263;SDS011;3673;52.480;13.348;2023-02-19T00:13:27;4.97;;;3.78;;
7263;SDS011;3673;52.480;13.348;2023-02-19T00:15:54;5.40;;;3.80;;
7263;SDS011;3673;52.480;13.348;2023-02-19T00:18:21;4.80;;;3.42;;
7263;SDS011;3673;52.480;13.348;2023-02-19T00:20:50;5.65;;;3.88;;
7263;SDS011;3673;52.480;13.348;2023-02-19T00:23:16;4.95;;;3.67;;
7263;SDS011;3673;52.480;13.348;2023-02-19T00:25:43;7.20;;;4.80;;
7263;SDS011;3673;52.480;13.348;2023-02-19T00:28:10;5.30;;;4.43;;
7263;SDS011;3673;52.480;13.348;2023-02-19T00:30:37;6.43;;;4.93;;
7263;SDS011;3673;52.480;13.348;2023-02-19T00:33:04;5.20;;;4.35;;
7263;SDS011;3673;52.480;13.348;2023-02-19T00:35:32;8.40;;;5.13;;
7263;SDS011;3673;52.480;13.348;2023-02-19T00:38:00;5.90;;;4.47;;
7263;SDS011;3673;52.480;13.348;2023-02-19T00:40:28;9.30;;;5.53;;
7263;SDS011;3673;52.480;13.348;2023-02-19T00:42:55;8.00;;;5.85;;
7263;SDS011;3673;52.480;13.348;2023-02-19T00:45:22;6.68;;;5.43;;
7263;SDS011;3673;52.480;13.348;2023-02-19T00:47:48;9.73;;;5.63;;
7263;SDS011;3673;52.480;13.348;2023-02-19T00:50:15;7.32;;;5.47;;
7263;SDS011;3673;52.480;13.348;2023-02-19T00:52:42;8.05;;;5.60;;
7263;SDS011;3673;52.480;13.348;2023-02-19T00:55:10;8.02;;;5.97;;
7263;SDS011;3673;52.480;13.348;2023-02-19T00:57:37;6.05;;;5.20;;
7263;SDS011;3673;52.480;13.348;2023-02-19T01:00:04;6.78;;;5.40;;
7263;SDS011;3673;52.480;13.348;2023-02-19T01:02:32;9.48;;;6.43;;
7263;SDS011;3673;52.480;13.348;2023-02-19T01:04:59;8.38;;;5.70;;
7263;SDS011;3673;52.480;13.348;2023-02-19T01:07:26;10.93;;;6.82;;
7263;SDS011;3673;52.480;13.348;2023-02-19T01:09:52;7.75;;;6.38;;
7263;SDS011;3673;52.480;13.348;2023-02-19T01:12:20;9.32;;;5.70;;
7263;SDS011;3673;52.480;13.348;2023-02-19T01:14:49;8.00;;;5.60;;
7263;SDS011;3673;52.480;13.348;2023-02-19T01:17:16;8.20;;;6.25;;
7263;SDS011;3673;52.480;13.348;2023-02-19T01:19:43;7.80;;;6.20;;
7263;SDS011;3673;52.480;13.348;2023-02-19T01:22:10;7.40;;;6.13;;
7263;SDS011;3673;52.480;13.348;2023-02-19T01:24:36;8.52;;;5.78;;
7263;SDS011;3673;52.480;13.348;2023-02-19T01:27:03;7.50;;;5.82;;
7263;SDS011;3673;52.480;13.348;2023-02-19T01:29:31;8.02;;;6.22;;
7263;SDS011;3673;52.480;13.348;2023-02-19T01:31:58;9.45;;;6.95;;
7263;SDS011;3673;52.480;13.348;2023-02-19T01:34:25;8.20;;;6.05;;
7263;SDS011;3673;52.480;13.348;2023-02-19T01:36:54;8.55;;;6.68;;
7263;SDS011;3673;52.480;13.348;2023-02-19T01:39:21;10.05;;;6.55;;
7263;SDS011;3673;52.480;13.348;2023-02-19T01:41:47;8.57;;;6.85;;
7263;SDS011;3673;52.480;13.348;2023-02-19T01:47:49;8.27;;;5.47;;
7263;SDS011;3673;52.480;13.348;2023-02-19T01:50:26;10.70;;;6.50;;
7263;SDS011;3673;52.480;13.348;2023-02-19T01:52:58;6.97;;;5.03;;
7263;SDS011;3673;52.480;13.348;2023-02-19T01:55:28;8.00;;;5.15;;
7263;SDS011;3673;52.480;13.348;2023-02-19T01:57:55;6.95;;;4.28;;
7263;SDS011;3673;52.480;13.348;2023-02-19T02:00:22;5.88;;;4.03;;
7263;SDS011;3673;52.480;13.348;2023-02-19T02:02:51;7.00;;;4.35;;
7263;SDS011;3673;52.480;13.348;2023-02-19T02:05:24;6.88;;;4.57;;
7263;SDS011;3673;52.480;13.348;2023-02-19T02:08:04;9.18;;;5.32;;
7263;SDS011;3673;52.480;13.348;2023-02-19T02:10:49;7.18;;;3.92;;
7263;SDS011;3673;52.480;13.348;2023-02-19T02:13:16;7.13;;;4.05;;
7263;SDS011;3673;52.480;13.348;2023-02-19T02:15:45;8.68;;;4.43;;
7263;SDS011;3673;52.480;13.348;2023-02-19T02:18:27;7.50;;;3.55;;
7263;SDS011;3673;52.480;13.348;2023-02-19T02:21:05;5.95;;;3.20;;
7263;SDS011;3673;52.480;13.348;2023-02-19T02:23:58;7.57;;;4.60;;
7263;SDS011;3673;52.480;13.348;2023-02-19T02:26:44;7.22;;;4.32;;
7263;SDS011;3673;52.480;13.348;2023-02-19T02:29:30;5.03;;;3.20;;
7263;SDS011;3673;52.480;13.348;2023-02-19T02:32:39;6.43;;;3.20;;
7263;SDS011;3673;52.480;13.348;2023-02-19T02:35:17;7.80;;;3.30;;
7263;SDS011;3673;52.480;13.348;2023-02-19T02:37:48;5.53;;;3.20;;
7263;SDS011;3673;52.480;13.348;2023-02-19T02:40:18;4.38;;;2.70;;
7263;SDS011;3673;52.480;13.348;2023-02-19T02:42:44;6.47;;;3.22;;
7263;SDS011;3673;52.480;13.348;2023-02-19T02:45:20;5.65;;;3.30;;
7263;SDS011;3673;52.480;13.348;2023-02-19T02:48:02;5.10;;;3.15;;
7263;SDS011;3673;52.480;13.348;2023-02-19T02:50:46;7.63;;;3.17;;
7263;SDS011;3673;52.480;13.348;2023-02-19T02:53:20;16.63;;;7.65;;
7263;SDS011;3673;52.480;13.348;2023-02-19T02:56:10;8.48;;;3.88;;
7263;SDS011;3673;52.480;13.348;2023-02-19T02:58:40;8.43;;;2.95;;
7263;SDS011;3673;52.480;13.348;2023-02-19T03:01:09;15.55;;;7.30;;
7263;SDS011;3673;52.480;13.348;2023-02-19T03:03:59;8.90;;;5.10;;
7263;SDS011;3673;52.480;13.348;2023-02-19T03:06:30;14.32;;;6.05;;
7263;SDS011;3673;52.480;13.348;2023-02-19T03:09:01;10.40;;;5.30;;
7263;SDS011;3673;52.480;13.348;2023-02-19T03:11:36;9.15;;;4.53;;
7263;SDS011;3673;52.480;13.348;2023-02-19T03:14:26;7.07;;;3.80;;
7263;SDS011;3673;52.480;13.348;2023-02-19T03:17:21;5.40;;;3.33;;
7263;SDS011;3673;52.480;13.348;2023-02-19T03:20:12;7.25;;;3.20;;
7263;SDS011;3673;52.480;13.348;2023-02-19T03:22:42;6.00;;;3.20;;
7263;SDS011;3673;52.480;13.348;2023-02-19T03:25:12;8.63;;;4.15;;
7263;SDS011;3673;52.480;13.348;2023-02-19T03:28:01;12.23;;;4.03;;
7263;SDS011;3673;52.480;13.348;2023-02-19T03:30:33;14.00;;;4.63;;
7263;SDS011;3673;52.480;13.348;2023-02-19T03:33:06;8.18;;;4.15;;
7263;SDS011;3673;52.480;13.348;2023-02-19T03:35:39;12.98;;;4.28;;
7263;SDS011;3673;52.480;13.348;2023-02-19T03:38:10;8.82;;;3.97;;
7263;SDS011;3673;52.480;13.348;2023-02-19T03:40:43;8.45;;;4.57;;
7263;SDS011;3673;52.480;13.348;2023-02-19T03:43:20;9.50;;;3.90;;
7263;SDS011;3673;52.480;13.348;2023-02-19T03:45:54;7.03;;;3.30;;
7263;SDS011;3673;52.480;13.348;2023-02-19T03:48:33;8.27;;;3.63;;
7263;SDS011;3673;52.480;13.348;2023-02-19T03:51:04;7.95;;;3.70;;
7263;SDS011;3673;52.480;13.348;2023-02-19T03:53:48;8.65;;;3.67;;
7263;SDS011;3673;52.480;13.348;2023-02-19T03:56:22;4.05;;;2.33;;
7263;SDS011;3673;52.480;13.348;2023-02-19T03:58:55;5.57;;;1.98;;
7263;SDS011;3673;52.480;13.348;2023-02-19T04:01:27;6.85;;;1.95;;
7263;SDS011;3673;52.480;13.348;2023-02-19T04:04:05;8.68;;;2.95;;
7263;SDS011;3673;52.480;13.348;2023-02-19T04:06:40;4.45;;;1.77;;
7263;SDS011;3673;52.480;13.348;2023-02-19T04:09:10;4.13;;;2.40;;
7263;SDS011;3673;52.480;13.348;2023-02-19T04:11:39;4.55;;;2.20;;
7263;SDS011;3673;52.480;13.348;2023-02-19T04:14:08;4.47;;;2.55;;
7263;SDS011;3673;52.480;13.348;2023-02-19T04:16:40;4.10;;;2.70;;
7263;SDS011;3673;52.480;13.348;2023-02-19T04:19:12;6.65;;;3.03;;
7263;SDS011;3673;52.480;13.348;2023-02-19T04:21:44;8.50;;;2.70;;
7263;SDS011;3673;52.480;13.348;2023-02-19T04:24:15;5.88;;;2.58;;
7263;SDS011;3673;52.480;13.348;2023-02-19T04:26:48;5.68;;;3.10;;
7263;SDS011;3673;52.480;13.348;2023-02-19T04:29:15;5.45;;;2.60;;
7263;SDS011;3673;52.480;13.348;2023-02-19T04:31:41;6.97;;;2.60;;
7263;SDS011;3673;52.480;13.348;2023-02-19T04:34:08;8.57;;;2.63;;
7263;SDS011;3673;52.480;13.348;2023-02-19T04:36:36;8.77;;;2.80;;
7263;SDS011;3673;52.480;13.348;2023-02-19T04:39:03;4.32;;;3.05;;
7263;SDS011;3673;52.480;13.348;2023-02-19T04:41:32;8.52;;;3.13;;
7263;SDS011;3673;52.480;13.348;2023-02-19T04:43:58;5.95;;;2.92;;
7263;SDS011;3673;52.480;13.348;2023-02-19T04:46:25;7.20;;;2.30;;
7263;SDS011;3673;52.480;13.348;2023-02-19T04:48:52;5.65;;;2.78;;
7263;SDS011;3673;52.480;13.348;2023-02-19T04:51:19;8.98;;;2.30;;
7263;SDS011;3673;52.480;13.348;2023-02-19T04:53:47;5.47;;;1.75;;
7263;SDS011;3673;52.480;13.348;2023-02-19T04:56:14;6.95;;;2.40;;
7263;SDS011;3673;52.480;13.348;2023-02-19T04:58:43;4.10;;;1.80;;
7263;SDS011;3673;52.480;13.348;2023-02-19T05:01:10;7.45;;;2.70;;
7263;SDS011;3673;52.480;13.348;2023-02-19T05:03:38;8.15;;;2.25;;
7263;SDS011;3673;52.480;13.348;2023-02-19T05:06:06;10.18;;;3.42;;
7263;SDS011;3673;52.480;13.348;2023-02-19T05:08:35;9.43;;;2.67;;
7263;SDS011;3673;52.480;13.348;2023-02-19T05:11:04;7.18;;;2.67;;
7263;SDS011;3673;52.480;13.348;2023-02-19T05:13:34;5.97;;;2.60;;
7263;SDS011;3673;52.480;13.348;2023-02-19T05:16:03;6.25;;;2.80;;
7263;SDS011;3673;52.480;13.348;2023-02-19T05:18:32;5.10;;;2.65;;
7263;SDS011;3673;52.480;13.348;2023-02-19T05:20:59;3.15;;;2.30;;
7263;SDS011;3673;52.480;13.348;2023-02-19T05:23:27;4.97;;;2.95;;
7263;SDS011;3673;52.480;13.348;2023-02-19T05:25:54;9.13;;;3.88;;
7263;SDS011;3673;52.480;13.348;2023-02-19T05:28:22;5.65;;;2.75;;
7263;SDS011;3673;52.480;13.348;2023-02-19T05:30:53;9.25;;;3.17;;
7263;SDS011;3673;52.480;13.348;2023-02-19T05:33:22;5.45;;;2.65;;
7263;SDS011;3673;52.480;13.348;2023-02-19T05:35:51;6.55;;;2.63;;
7263;SDS011;3673;52.480;13.348;2023-02-19T05:38:20;6.22;;;2.45;;
7263;SDS011;3673;52.480;13.348;2023-02-19T05:40:48;5.15;;;2.28;;
7263;SDS011;3673;52.480;13.348;2023-02-19T05:43:15;6.18;;;2.72;;
7263;SDS011;3673;52.480;13.348;2023-02-19T05:45:44;5.93;;;3.08;;
7263;SDS011;3673;52.480;13.348;2023-02-19T05:48:11;5.70;;;2.78;;
7263;SDS011;3673;52.480;13.348;2023-02-19T05:50:38;4.93;;;2.53;;
7263;SDS011;3673;52.480;13.348;2023-02-19T05:53:04;4.75;;;2.33;;
7263;SDS011;3673;52.480;13.348;2023-02-19T05:55:32;5.55;;;2.00;;
7263;SDS011;3673;52.480;13.348;2023-02-19T05:58:01;6.05;;;2.75;;
7263;SDS011;3673;52.480;13.348;2023-02-19T06:00:28;12.88;;;6.57;;
7263;SDS011;3673;52.480;13.348;2023-02-19T06:02:58;5.53;;;3.33;;
7263;SDS011;3673;52.480;13.348;2023-02-19T06:05:25;8.13;;;3.38;;
7263;SDS011;3673;52.480;13.348;2023-02-19T06:07:52;15.13;;;6.07;;
7263;SDS011;3673;52.480;13.348;2023-02-19T06:10:19;7.25;;;3.15;;
7263;SDS011;3673;52.480;13.348;2023-02-19T06:12:45;5.20;;;2.67;;
7263;SDS011;3673;52.480;13.348;2023-02-19T06:15:12;5.78;;;2.75;;
7263;SDS011;3673;52.480;13.348;2023-02-19T06:17:39;5.32;;;2.92;;
7263;SDS011;3673;52.480;13.348;2023-02-19T06:20:07;6.25;;;2.78;;
7263;SDS011;3673;52.480;13.348;2023-02-19T06:22:35;7.35;;;3.30;;
7263;SDS011;3673;52.480;13.348;2023-02-19T06:25:02;6.20;;;3.40;;
7263;SDS011;3673;52.480;13.348;2023-02-19T06:27:31;5.50;;;2.42;;
7263;SDS011;3673;52.480;13.348;2023-02-19T06:29:58;6.22;;;2.08;;
7263;SDS011;3673;52.480;13.348;2023-02-19T06:32:25;8.82;;;2.75;;
7263;SDS011;3673;52.480;13.348;2023-02-19T06:34:52;10.70;;;3.83;;
7263;SDS011;3673;52.480;13.348;2023-02-19T06:37:20;4.60;;;2.95;;
7263;SDS011;3673;52.480;13.348;2023-02-19T06:39:47;5.35;;;2.40;;
7263;SDS011;3673;52.480;13.348;2023-02-19T06:42:14;7.55;;;2.50;;
7263;SDS011;3673;52.480;13.348;2023-02-19T06:44:41;7.50;;;3.10;;
7263;SDS011;3673;52.480;13.348;2023-02-19T06:47:08;9.88;;;2.15;;
7263;SDS011;3673;52.480;13.348;2023-02-19T06:49:35;5.93;;;2.20;;
7263;SDS011;3673;52.480;13.348;2023-02-19T06:52:03;7.43;;;2.47;;
7263;SDS011;3673;52.480;13.348;2023-02-19T06:54:31;3.83;;;2.05;;
7263;SDS011;3673;52.480;13.348;2023-02-19T06:56:58;7.72;;;2.25;;
7263;SDS011;3673;52.480;13.348;2023-02-19T06:59:26;5.07;;;2.58;;
7263;SDS011;3673;52.480;13.348;2023-02-19T07:01:53;6.88;;;2.28;;
7263;SDS011;3673;52.480;13.348;2023-02-19T07:04:19;5.85;;;2.42;;
7263;SDS011;3673;52.480;13.348;2023-02-19T07:06:46;6.85;;;2.47;;
7263;SDS011;3673;52.480;13.348;2023-02-19T07:09:13;7.97;;;2.40;;
7263;SDS011;3673;52.480;13.348;2023-02-19T07:11:41;5.28;;;1.92;;
7263;SDS011;3673;52.480;13.348;2023-02-19T07:14:09;4.68;;;2.30;;
7263;SDS011;3673;52.480;13.348;2023-02-19T07:16:40;7.53;;;2.65;;
7263;SDS011;3673;52.480;13.348;2023-02-19T07:19:08;4.03;;;2.35;;
7263;SDS011;3673;52.480;13.348;2023-02-19T07:21:35;7.07;;;3.17;;
7263;SDS011;3673;52.480;13.348;2023-02-19T07:24:02;3.83;;;2.42;;
7263;SDS011;3673;52.480;13.348;2023-02-19T07:26:30;3.97;;;2.03;;
7263;SDS011;3673;52.480;13.348;2023-02-19T07:28:58;5.03;;;2.20;;
7263;SDS011;3673;52.480;13.348;2023-02-19T07:31:25;6.15;;;2.30;;
7263;SDS011;3673;52.480;13.348;2023-02-19T07:33:53;11.90;;;3.30;;
7263;SDS011;3673;52.480;13.348;2023-02-19T07:36:21;4.22;;;2.13;;
7263;SDS011;3673;52.480;13.348;2023-02-19T07:38:51;6.38;;;2.35;;
7263;SDS011;3673;52.480;13.348;2023-02-19T07:41:20;4.95;;;2.72;;
7263;SDS011;3673;52.480;13.348;2023-02-19T07:43:47;7.18;;;2.83;;
7263;SDS011;3673;52.480;13.348;2023-02-19T07:46:16;6.32;;;3.13;;
7263;SDS011;3673;52.480;13.348;2023-02-19T07:48:43;5.28;;;2.35;;
7263;SDS011;3673;52.480;13.348;2023-02-19T07:51:10;5.78;;;2.72;;
7263;SDS011;3673;52.480;13.348;2023-02-19T07:53:42;6.72;;;2.67;;
7263;SDS011;3673;52.480;13.348;2023-02-19T07:56:10;4.97;;;2.17;;
7263;SDS011;3673;52.480;13.348;2023-02-19T07:58:38;7.32;;;2.35;;
7263;SDS011;3673;52.480;13.348;2023-02-19T08:01:05;6.38;;;2.85;;
7263;SDS011;3673;52.480;13.348;2023-02-19T08:03:36;3.72;;;2.30;;
7263;SDS011;3673;52.480;13.348;2023-02-19T08:06:02;4.40;;;2.42;;
7263;SDS011;3673;52.480;13.348;2023-02-19T08:08:30;5.82;;;2.92;;
7263;SDS011;3673;52.480;13.348;2023-02-19T08:10:58;5.18;;;2.47;;
7263;SDS011;3673;52.480;13.348;2023-02-19T08:13:43;7.55;;;2.65;;
7263;SDS011;3673;52.480;13.348;2023-02-19T08:16:13;8.55;;;3.35;;
7263;SDS011;3673;52.480;13.348;2023-02-19T08:18:43;8.98;;;2.70;;
7263;SDS011;3673;52.480;13.348;2023-02-19T08:21:10;5.55;;;2.97;;
7263;SDS011;3673;52.480;13.348;2023-02-19T08:23:37;3.58;;;2.50;;
7263;SDS011;3673;52.480;13.348;2023-02-19T08:26:05;6.47;;;3.08;;
7263;SDS011;3673;52.480;13.348;2023-02-19T08:28:33;4.82;;;2.13;;
7263;SDS011;3673;52.480;13.348;2023-02-19T08:31:02;5.90;;;2.35;;
7263;SDS011;3673;52.480;13.348;2023-02-19T08:33:32;7.55;;;2.20;;
7263;SDS011;3673;52.480;13.348;2023-02-19T08:36:02;4.93;;;2.35;;
7263;SDS011;3673;52.480;13.348;2023-02-19T08:38:30;5.95;;;1.80;;
7263;SDS011;3673;52.480;13.348;2023-02-19T08:41:02;7.60;;;2.17;;
7263;SDS011;3673;52.480;13.348;2023-02-19T08:43:30;6.90;;;2.25;;
7263;SDS011;3673;52.480;13.348;2023-02-19T08:45:57;9.50;;;2.10;;
7263;SDS011;3673;52.480;13.348;2023-02-19T08:48:24;3.88;;;2.42;;
7263;SDS011;3673;52.480;13.348;2023-02-19T08:50:52;3.60;;;1.73;;
7263;SDS011;3673;52.480;13.348;2023-02-19T08:53:22;9.43;;;2.08;;
7263;SDS011;3673;52.480;13.348;2023-02-19T08:55:49;5.47;;;1.80;;
7263;SDS011;3673;52.480;13.348;2023-02-19T08:58:16;6.18;;;2.42;;
7263;SDS011;3673;52.480;13.348;2023-02-19T09:00:43;9.63;;;2.10;;
7263;SDS011;3673;52.480;13.348;2023-02-19T09:03:10;8.60;;;2.35;;
7263;SDS011;3673;52.480;13.348;2023-02-19T09:05:37;4.82;;;1.60;;
7263;SDS011;3673;52.480;13.348;2023-02-19T09:08:04;19.20;;;3.00;;
7263;SDS011;3673;52.480;13.348;2023-02-19T09:10:32;8.40;;;1.98;;
7263;SDS011;3673;52.480;13.348;2023-02-19T09:12:59;6.18;;;2.30;;
7263;SDS011;3673;52.480;13.348;2023-02-19T09:15:27;14.65;;;3.92;;
7263;SDS011;3673;52.480;13.348;2023-02-19T09:17:57;8.40;;;2.50;;
7263;SDS011;3673;52.480;13.348;2023-02-19T09:20:24;7.75;;;2.42;;
7263;SDS011;3673;52.480;13.348;2023-02-19T09:22:55;5.00;;;1.63;;
7263;SDS011;3673;52.480;13.348;2023-02-19T09:25:23;8.65;;;1.83;;
7263;SDS011;3673;52.480;13.348;2023-02-19T09:27:54;8.90;;;2.50;;
7263;SDS011;3673;52.480;13.348;2023-02-19T09:30:21;5.57;;;2.17;;
7263;SDS011;3673;52.480;13.348;2023-02-19T09:32:48;13.57;;;3.92;;
7263;SDS011;3673;52.480;13.348;2023-02-19T09:35:15;11.25;;;5.10;;
7263;SDS011;3673;52.480;13.348;2023-02-19T09:37:42;17.30;;;9.10;;
7263;SDS011;3673;52.480;13.348;2023-02-19T09:40:09;7.38;;;2.92;;
7263;SDS011;3673;52.480;13.348;2023-02-19T09:42:37;10.52;;;5.78;;
7263;SDS011;3673;52.480;13.348;2023-02-19T09:45:11;8.48;;;2.33;;
7263;SDS011;3673;52.480;13.348;2023-02-19T09:47:44;7.20;;;2.30;;
7263;SDS011;3673;52.480;13.348;2023-02-19T09:50:13;7.38;;;3.00;;
7263;SDS011;3673;52.480;13.348;2023-02-19T09:52:45;8.75;;;2.70;;
7263;SDS011;3673;52.480;13.348;2023-02-19T09:55:17;5.20;;;1.80;;
7263;SDS011;3673;52.480;13.348;2023-02-19T09:57:56;6.43;;;1.92;;
7263;SDS011;3673;52.480;13.348;2023-02-19T10:00:28;10.18;;;2.13;;
7263;SDS011;3673;52.480;13.348;2023-02-19T10:03:01;9.60;;;2.58;;
7263;SDS011;3673;52.480;13.348;2023-02-19T10:05:31;6.78;;;2.42;;
7263;SDS011;3673;52.480;13.348;2023-02-19T10:07:59;11.48;;;2.17;;
7263;SDS011;3673;52.480;13.348;2023-02-19T10:10:30;11.68;;;2.15;;
7263;SDS011;3673;52.480;13.348;2023-02-19T10:13:04;6.88;;;2.40;;
7263;SDS011;3673;52.480;13.348;2023-02-19T10:15:44;5.97;;;2.50;;
7263;SDS011;3673;52.480;13.348;2023-02-19T10:18:15;6.80;;;1.95;;
7263;SDS011;3673;52.480;13.348;2023-02-19T10:20:48;6.28;;;2.13;;
7263;SDS011;3673;52.480;13.348;2023-02-19T10:23:17;4.43;;;1.70;;
7263;SDS011;3673;52.480;13.348;2023-02-19T10:25:45;12.88;;;2.45;;
7263;SDS011;3673;52.480;13.348;2023-02-19T10:28:16;18.27;;;9.75;;
7263;SDS011;3673;52.480;13.348;2023-02-19T10:30:50;13.15;;;7.28;;
7263;SDS011;3673;52.480;13.348;2023-02-19T10:33:18;13.95;;;3.88;;
7263;SDS011;3673;52.480;13.348;2023-02-19T10:35:53;8.65;;;1.85;;
7263;SDS011;3673;52.480;13.348;2023-02-19T10:38:23;10.75;;;5.93;;
7263;SDS011;3673;52.480;13.348;2023-02-19T10:40:57;17.80;;;10.35;;
7263;SDS011;3673;52.480;13.348;2023-02-19T10:43:30;6.55;;;2.67;;
7263;SDS011;3673;52.480;13.348;2023-02-19T10:46:02;8.30;;;2.30;;
7263;SDS011;3673;52.480;13.348;2023-02-19T10:48:33;13.70;;;4.40;;
7263;SDS011;3673;52.480;13.348;2023-02-19T10:51:04;6.53;;;1.83;;
7263;SDS011;3673;52.480;13.348;2023-02-19T10:53:36;10.98;;;3.55;;
7263;SDS011;3673;52.480;13.348;2023-02-19T10:56:10;3.10;;;1.65;;
7263;SDS011;3673;52.480;13.348;2023-02-19T10:58:40;4.90;;;1.60;;
7263;SDS011;3673;52.480;13.348;2023-02-19T11:01:11;5.63;;;1.80;;
7263;SDS011;3673;52.480;13.348;2023-02-19T11:03:44;5.53;;;1.85;;
7263;SDS011;3673;52.480;13.348;2023-02-19T11:06:13;4.60;;;2.30;;
7263;SDS011;3673;52.480;13.348;2023-02-19T11:08:45;9.82;;;3.08;;
7263;SDS011;3673;52.480;13.348;2023-02-19T11:11:32;4.60;;;1.30;;
7263;SDS011;3673;52.480;13.348;2023-02-19T11:14:03;7.45;;;1.95;;
7263;SDS011;3673;52.480;13.348;2023-02-19T11:16:42;2.85;;;1.17;;
7263;SDS011;3673;52.480;13.348;2023-02-19T11:19:23;5.90;;;1.42;;
7263;SDS011;3673;52.480;13.348;2023-02-19T11:21:54;12.80;;;3.90;;
7263;SDS011;3673;52.480;13.348;2023-02-19T11:24:23;7.60;;;2.13;;
7263;SDS011;3673;52.480;13.348;2023-02-19T11:27:05;7.28;;;2.03;;
7263;SDS011;3673;52.480;13.348;2023-02-19T11:29:41;10.43;;;1.77;;
7263;SDS011;3673;52.480;13.348;2023-02-19T11:32:28;5.82;;;1.90;;
7263;SDS011;3673;52.480;13.348;2023-02-19T11:35:15;5.80;;;1.60;;
7263;SDS011;3673;52.480;13.348;2023-02-19T11:37:53;5.63;;;1.50;;
7263;SDS011;3673;52.480;13.348;2023-02-19T11:40:24;8.23;;;1.73;;
7263;SDS011;3673;52.480;13.348;2023-02-19T11:43:05;6.18;;;2.70;;
7263;SDS011;3673;52.480;13.348;2023-02-19T11:45:46;7.68;;;2.22;;
7263;SDS011;3673;52.480;13.348;2023-02-19T11:51:21;7.72;;;2.35;;
7263;SDS011;3673;52.480;13.348;2023-02-19T11:54:20;5.43;;;1.67;;
7263;SDS011;3673;52.480;13.348;2023-02-19T11:57:04;10.80;;;2.75;;
7263;SDS011;3673;52.480;13.348;2023-02-19T11:59:44;11.77;;;2.00;;
7263;SDS011;3673;52.480;13.348;2023-02-19T12:02:24;10.02;;;2.45;;
7263;SDS011;3673;52.480;13.348;2023-02-19T12:05:20;5.57;;;1.50;;
7263;SDS011;3673;52.480;13.348;2023-02-19T12:08:02;9.65;;;3.83;;
7263;SDS011;3673;52.480;13.348;2023-02-19T12:10:49;4.18;;;1.83;;
7263;SDS011;3673;52.480;13.348;2023-02-19T12:13:48;7.68;;;1.88;;
7263;SDS011;3673;52.480;13.348;2023-02-19T12:16:51;6.00;;;1.73;;
7263;SDS011;3673;52.480;13.348;2023-02-19T12:19:31;4.15;;;1.75;;
7263;SDS011;3673;52.480;13.348;2023-02-19T12:22:32;6.15;;;1.42;;
7263;SDS011;3673;52.480;13.348;2023-02-19T12:25:15;3.88;;;1.33;;
7263;SDS011;3673;52.480;13.348;2023-02-19T12:31:34;2.45;;;0.82;;
7263;SDS011;3673;52.480;13.348;2023-02-19T12:34:20;2.00;;;0.80;;
7263;SDS011;3673;52.480;13.348;2023-02-19T12:37:10;4.70;;;1.17;;
7263;SDS011;3673;52.480;13.348;2023-02-19T12:39:55;4.72;;;1.83;;
7263;SDS011;3673;52.480;13.348;2023-02-19T12:42:39;2.83;;;1.17;;
7263;SDS011;3673;52.480;13.348;2023-02-19T12:45:23;3.20;;;1.25;;
7263;SDS011;3673;52.480;13.348;2023-02-19T12:47:58;5.57;;;1.23;;
7263;SDS011;3673;52.480;13.348;2023-02-19T12:50:31;4.15;;;1.45;;
7263;SDS011;3673;52.480;13.348;2023-02-19T12:53:04;4.97;;;1.50;;
7263;SDS011;3673;52.480;13.348;2023-02-19T12:55:49;2.05;;;1.15;;
7263;SDS011;3673;52.480;13.348;2023-02-19T12:58:23;2.85;;;1.25;;
7263;SDS011;3673;52.480;13.348;2023-02-19T13:00:57;4.50;;;1.50;;
7263;SDS011;3673;52.480;13.348;2023-02-19T13:03:27;5.85;;;1.20;;
7263;SDS011;3673;52.480;13.348;2023-02-19T13:06:00;4.00;;;1.38;;
7263;SDS011;3673;52.480;13.348;2023-02-19T13:08:35;6.82;;;1.33;;
7263;SDS011;3673;52.480;13.348;2023-02-19T13:11:12;4.07;;;1.67;;
7263;SDS011;3673;52.480;13.348;2023-02-19T13:13:44;4.32;;;1.00;;
7263;SDS011;3673;52.480;13.348;2023-02-19T13:16:16;4.20;;;1.13;;
7263;SDS011;3673;52.480;13.348;2023-02-19T13:18:46;6.40;;;1.25;;
7263;SDS011;3673;52.480;13.348;2023-02-19T13:21:17;4.97;;;1.17;;
7263;SDS011;3673;52.480;13.348;2023-02-19T13:24:01;4.97;;;1.23;;
7263;SDS011;3673;52.480;13.348;2023-02-19T13:26:47;6.35;;;1.20;;
7263;SDS011;3673;52.480;13.348;2023-02-19T13:29:36;2.92;;;1.02;;
7263;SDS011;3673;52.480;13.348;2023-02-19T13:32:24;3.30;;;1.00;;
7263;SDS011;3673;52.480;13.348;2023-02-19T13:35:18;3.08;;;0.90;;
7263;SDS011;3673;52.480;13.348;2023-02-19T13:37:53;6.43;;;1.02;;
7263;SDS011;3673;52.480;13.348;2023-02-19T13:40:26;3.38;;;0.77;;
7263;SDS011;3673;52.480;13.348;2023-02-19T13:43:00;3.85;;;1.38;;
7263;SDS011;3673;52.480;13.348;2023-02-19T13:45:31;3.50;;;1.23;;
7263;SDS011;3673;52.480;13.348;2023-02-19T13:48:12;5.50;;;1.02;;
7263;SDS011;3673;52.480;13.348;2023-02-19T13:50:50;2.43;;;0.93;;
7263;SDS011;3673;52.480;13.348;2023-02-19T13:54:25;4.10;;;0.70;;
7263;SDS011;3673;52.480;13.348;2023-02-19T13:59:51;3.17;;;1.03;;
7263;SDS011;3673;52.480;13.348;2023-02-19T14:02:23;7.03;;;1.67;;
7263;SDS011;3673;52.480;13.348;2023-02-19T14:04:56;11.20;;;5.40;;
7263;SDS011;3673;52.480;13.348;2023-02-19T14:16:30;6.22;;;1.40;;
7263;SDS011;3673;52.480;13.348;2023-02-19T14:25:35;8.35;;;1.63;;
7263;SDS011;3673;52.480;13.348;2023-02-19T14:28:27;10.98;;;4.70;;
7263;SDS011;3673;52.480;13.348;2023-02-19T14:31:02;5.35;;;1.92;;
7263;SDS011;3673;52.480;13.348;2023-02-19T14:33:42;9.45;;;3.03;;
7263;SDS011;3673;52.480;13.348;2023-02-19T14:36:14;4.40;;;1.35;;
7263;SDS011;3673;52.480;13.348;2023-02-19T14:38:54;8.15;;;1.50;;
7263;SDS011;3673;52.480;13.348;2023-02-19T14:41:23;4.13;;;1.35;;
7263;SDS011;3673;52.480;13.348;2023-02-19T14:43:53;5.40;;;1.52;;
7263;SDS011;3673;52.480;13.348;2023-02-19T14:46:25;1.73;;;0.70;;
7263;SDS011;3673;52.480;13.348;2023-02-19T14:48:57;5.25;;;2.15;;
7263;SDS011;3673;52.480;13.348;2023-02-19T14:51:32;4.07;;;1.40;;
7263;SDS011;3673;52.480;13.348;2023-02-19T14:54:08;1.70;;;1.30;;
7263;SDS011;3673;52.480;13.348;2023-02-19T14:56:41;3.95;;;0.90;;
7263;SDS011;3673;52.480;13.348;2023-02-19T14:59:21;4.75;;;1.00;;
7263;SDS011;3673;52.480;13.348;2023-02-19T15:01:54;4.28;;;1.50;;
7263;SDS011;3673;52.480;13.348;2023-02-19T15:04:23;9.05;;;2.83;;
7263;SDS011;3673;52.480;13.348;2023-02-19T15:06:53;3.97;;;1.13;;
7263;SDS011;3673;52.480;13.348;2023-02-19T15:09:24;4.93;;;1.08;;
7263;SDS011;3673;52.480;13.348;2023-02-19T15:11:57;4.70;;;1.85;;
7263;SDS011;3673;52.480;13.348;2023-02-19T15:14:26;5.85;;;2.05;;
7263;SDS011;3673;52.480;13.348;2023-02-19T15:16:55;5.10;;;1.85;;
7263;SDS011;3673;52.480;13.348;2023-02-19T15:19:26;3.72;;;1.70;;
7263;SDS011;3673;52.480;13.348;2023-02-19T15:21:54;5.80;;;1.60;;
7263;SDS011;3673;52.480;13.348;2023-02-19T15:24:21;6.95;;;1.50;;
7263;SDS011;3673;52.480;13.348;2023-02-19T15:26:50;3.58;;;1.38;;
7263;SDS011;3673;52.480;13.348;2023-02-19T15:29:20;5.70;;;3.47;;
7263;SDS011;3673;52.480;13.348;2023-02-19T15:31:49;11.00;;;2.40;;
7263;SDS011;3673;52.480;13.348;2023-02-19T15:34:19;5.78;;;1.77;;
7263;SDS011;3673;52.480;13.348;2023-02-19T15:36:49;5.07;;;2.10;;
7263;SDS011;3673;52.480;13.348;2023-02-19T15:39:20;6.03;;;3.30;;
7263;SDS011;3673;52.480;13.348;2023-02-19T15:41:52;6.70;;;2.53;;
7263;SDS011;3673;52.480;13.348;2023-02-19T15:44:26;5.60;;;1.67;;
7263;SDS011;3673;52.480;13.348;2023-02-19T15:47:02;4.40;;;2.10;;
7263;SDS011;3673;52.480;13.348;2023-02-19T15:49:40;7.13;;;2.53;;
7263;SDS011;3673;52.480;13.348;2023-02-19T15:52:23;5.03;;;1.30;;
7263;SDS011;3673;52.480;13.348;2023-02-19T15:55:05;3.72;;;1.50;;
7263;SDS011;3673;52.480;13.348;2023-02-19T15:57:48;7.35;;;1.33;;
7263;SDS011;3673;52.480;13.348;2023-02-19T16:00:20;6.18;;;1.10;;